Time;durP1;ratioP1;P1;durP2;ratioP2;P2;SDS_P1;SDS_P2;PMS_P1;PMS_P2;Temp;Humidity;BMP_temperature;BMP_pressure;BME280_temperature;BME280_humidity;BME280_pressure;Samples;Min_cycle;Max_cycle;Signal;HPM_P1;HPM_P2
2020/12/16 01:21:51;;;;;;;;;;;;;;;;;;;;;
2020/12/16 01:39:28;;;;;;;;;;;;;;;;;;;;;
2020/12/16 02:26:36;;;;;;;;;;;;;;;;;;;;;
2020/12/16 03:48:42;;;;;;;1.30;0.10;;;7.50;90.40;;;;;;4132851;27;20051;-90
2020/12/16 03:51:10;;;;;;;0.00;0.00;;;7.50;90.40;;;;;;4134819;27;20048;-89
2020/12/16 04:01:52;;;;;;;0.25;0.15;;;7.50;90.40;;;;;;4175861;27;20114;-88
2020/12/16 04:04:38;;;;;;;;;;;;;;;;;;;;;
2020/12/16 04:07:25;;;;;;;0.00;0.00;;;7.40;90.40;;;;;;4131131;27;20470;-91
2020/12/16 04:09:52;;;;;;;1.40;0.30;;;7.40;90.40;;;;;;4099778;27;20797;31
2020/12/16 04:17:52;;;;;;;0.10;0.05;;;7.40;90.40;;;;;;4132972;34;20051;-89
2020/12/16 04:20:28;;;;;;;;;;;;;;;;;;;;;
2020/12/16 04:22:55;;;;;;;0.00;0.00;;;7.30;90.30;;;;;;4123047;27;20113;-90
2020/12/16 04:27:54;;;;;;;0.00;0.00;;;7.30;90.30;;;;;;4144809;27;20042;-89
2020/12/16 04:30:30;;;;;;;0.50;0.20;;;7.30;90.40;;;;;;4137125;27;20112;-90
2020/12/16 04:35:39;;;;;;;3.13;0.22;;;7.30;90.30;;;;;;4132309;27;20059;-90
2020/12/16 04:38:06;;;;;;;0.10;0.08;;;7.30;90.30;;;;;;4137057;27;20084;-89
2020/12/16 04:40:32;;;;;;;0.00;0.00;;;7.20;90.30;;;;;;4064427;35;20044;-90
2020/12/16 04:43:12;;;;;;;0.00;0.00;;;7.20;90.30;;;;;;4115775;27;20077;-89
2020/12/16 04:46:01;;;;;;;0.00;0.00;;;7.20;90.30;;;;;;4110744;27;20271;-90
2020/12/16 04:48:38;;;;;;;;;;;;;;;;;;;;;
2020/12/16 04:51:08;;;;;;;0.00;0.00;;;7.20;90.30;;;;;;4142073;27;20780;-90
2020/12/16 04:53:37;;;;;;;0.00;0.00;;;7.10;90.30;;;;;;4164654;27;20078;-88
2020/12/16 04:56:06;;;;;;;0.47;0.00;;;7.10;90.30;;;;;;4107013;34;20082;-88
2020/12/16 05:01:03;;;;;;;0.00;0.00;;;7.00;90.40;;;;;;4132333;27;20036;-88
2020/12/16 05:03:30;;;;;;;0.40;0.10;;;6.90;90.50;;;;;;4119391;27;20466;-90
2020/12/16 05:05:59;;;;;;;0.20;0.10;;;6.90;90.50;;;;;;4098490;35;20106;-89
2020/12/16 05:08:29;;;;;;;0.00;0.00;;;6.90;90.50;;;;;;4119666;27;20109;-89
2020/12/16 05:10:55;;;;;;;0.00;0.00;;;6.90;90.50;;;;;;4111593;27;20067;-88
2020/12/16 05:13:30;;;;;;;1.57;0.03;;;6.80;90.50;;;;;;4132290;27;20035;-89
2020/12/16 05:16:04;;;;;;;0.00;0.00;;;6.80;90.50;;;;;;4114454;27;20059;-90
2020/12/16 05:18:32;;;;;;;0.00;0.00;;;6.90;90.50;;;;;;4113380;27;20086;-90
2020/12/16 05:21:07;;;;;;;0.00;0.00;;;6.90;90.50;;;;;;4119482;27;20051;-88
2020/12/16 05:23:42;;;;;;;0.30;0.20;;;6.90;90.50;;;;;;4120470;34;20039;-88
2020/12/16 05:26:21;;;;;;;0.00;0.00;;;6.90;90.40;;;;;;4116526;34;20411;-89
2020/12/16 05:28:49;;;;;;;1.50;0.73;;;6.90;90.40;;;;;;4116549;27;20071;-88
2020/12/16 05:31:15;;;;;;;0.37;0.20;;;6.90;90.40;;;;;;4106402;28;20066;-89
2020/12/16 05:33:49;;;;;;;1.60;0.10;;;6.90;90.40;;;;;;4133542;27;20067;-89
2020/12/16 05:36:35;;;;;;;0.00;0.00;;;6.90;90.40;;;;;;4096539;27;20604;-88
2020/12/16 05:39:02;;;;;;;2.20;0.30;;;6.90;90.40;;;;;;4119565;34;20225;-90
2020/12/16 05:41:30;;;;;;;0.03;0.00;;;6.90;90.40;;;;;;4108126;34;20090;-89
2020/12/16 05:44:28;;;;;;;0.63;0.10;;;6.90;90.40;;;;;;4121757;34;20079;-88
2020/12/16 05:47:13;;;;;;;0.43;0.20;;;6.90;90.40;;;;;;4094137;28;20088;-87
2020/12/16 05:49:40;;;;;;;0.07;0.00;;;6.80;90.40;;;;;;4056859;35;20061;-87
2020/12/16 05:52:06;;;;;;;0.00;0.00;;;6.90;90.40;;;;;;4056652;35;20075;-88
2020/12/16 05:54:35;;;;;;;0.40;0.00;;;6.90;90.40;;;;;;4055949;27;20104;-87
2020/12/16 05:57:18;;;;;;;0.53;0.10;;;6.90;90.40;;;;;;4057258;35;20081;-87
2020/12/16 06:00:00;;;;;;;0.47;0.23;;;6.90;90.40;;;;;;4067034;35;20084;-88
2020/12/16 06:02:33;;;;;;;0.07;0.00;;;7.00;90.40;;;;;;4085772;27;20076;-88
2020/12/16 06:05:00;;;;;;;0.10;0.10;;;7.00;90.40;;;;;;4055281;35;20060;-88
2020/12/16 06:07:27;;;;;;;0.00;0.00;;;7.00;90.40;;;;;;4056925;35;20076;-88
2020/12/16 06:09:55;;;;;;;0.00;0.00;;;7.00;90.30;;;;;;4056623;35;20077;-89
2020/12/16 06:12:21;;;;;;;0.00;0.00;;;7.00;90.40;;;;;;4058542;35;20076;-89
2020/12/16 06:14:48;;;;;;;0.20;0.20;;;6.90;90.30;;;;;;4059576;35;20080;-90
2020/12/16 06:17:17;;;;;;;0.00;0.00;;;6.90;90.40;;;;;;4064503;28;20479;-89
2020/12/16 06:19:47;;;;;;;0.00;0.00;;;6.90;90.40;;;;;;4083599;34;20121;-88
2020/12/16 06:22:15;;;;;;;0.83;0.10;;;6.90;90.50;;;;;;4113989;34;20053;-89
2020/12/16 06:24:43;;;;;;;0.00;0.00;;;6.80;90.50;;;;;;4103558;34;20070;-89
2020/12/16 06:27:11;;;;;;;0.00;0.00;;;6.80;90.50;;;;;;4109742;27;20066;-89
2020/12/16 06:29:47;;;;;;;0.00;0.00;;;6.80;90.50;;;;;;4105141;27;20082;-88
2020/12/16 06:32:23;;;;;;;0.00;0.00;;;6.80;90.50;;;;;;4123677;27;20043;-88
2020/12/16 06:34:56;;;;;;;0.73;0.20;;;6.80;90.50;;;;;;4115862;34;20063;-91
2020/12/16 06:37:25;;;;;;;0.00;0.00;;;6.80;90.50;;;;;;4118634;27;20239;-88
2020/12/16 06:39:55;;;;;;;1.13;0.20;;;6.80;90.50;;;;;;4131026;27;20039;-90
2020/12/16 06:42:36;;;;;;;0.00;0.00;;;6.80;90.50;;;;;;4114657;27;20082;-90
2020/12/16 06:45:21;;;;;;;0.37;0.20;;;6.80;90.50;;;;;;4105203;27;20082;-89
2020/12/16 06:47:54;;;;;;;0.00;0.00;;;6.80;90.50;;;;;;4100921;28;20109;-87
2020/12/16 06:50:21;;;;;;;0.00;0.00;;;6.80;90.50;;;;;;4105253;27;20082;-89
2020/12/16 06:52:48;;;;;;;0.10;0.00;;;6.80;90.50;;;;;;4102284;27;20075;-89
2020/12/16 06:55:14;;;;;;;0.00;0.00;;;6.80;90.50;;;;;;4102449;27;20070;-89
2020/12/16 06:57:50;;;;;;;0.50;0.10;;;6.80;90.50;;;;;;4099228;35;20054;-90
2020/12/16 07:00:21;;;;;;;2.10;0.40;;;6.80;90.50;;;;;;4099788;27;20051;-88
2020/12/16 07:02:48;;;;;;;0.10;0.10;;;6.90;90.50;;;;;;4100365;27;20394;-89
2020/12/16 07:05:50;;;;;;;0.00;0.00;;;6.80;90.40;;;;;;4111309;27;20059;-90
2020/12/16 07:08:28;;;;;;;0.10;0.07;;;6.80;90.40;;;;;;4083895;35;20083;-89
2020/12/16 07:10:54;;;;;;;0.67;0.30;;;6.90;90.40;;;;;;4095026;35;20325;-90
2020/12/16 07:13:49;;;;;;;0.00;0.00;;;6.90;90.50;;;;;;4095860;35;20449;-88
2020/12/16 07:16:16;;;;;;;0.00;0.00;;;6.90;90.50;;;;;;4107961;27;20055;-89
2020/12/16 07:18:46;;;;;;;0.20;0.10;;;6.80;90.40;;;;;;4094014;35;20066;-87
2020/12/16 07:21:16;;;;;;;0.08;0.03;;;6.80;90.40;;;;;;4096582;35;20071;-89
2020/12/16 07:23:44;;;;;;;0.77;0.50;;;6.80;90.40;;;;;;4125408;35;20063;-89
2020/12/16 07:26:17;;;;;;;0.00;0.00;;;6.80;90.50;;;;;;4104716;35;20067;-88
2020/12/16 07:28:44;;;;;;;0.33;0.17;;;6.80;90.50;;;;;;4107198;27;20062;-88
2020/12/16 07:31:10;;;;;;;0.00;0.00;;;6.80;90.50;;;;;;4102904;27;20245;-90
2020/12/16 07:33:37;;;;;;;0.20;0.00;;;6.80;90.50;;;;;;4100099;27;20067;-90
2020/12/16 07:36:08;;;;;;;0.00;0.00;;;6.80;90.50;;;;;;4097802;27;20342;-88
2020/12/16 07:38:35;;;;;;;0.17;0.00;;;6.80;90.50;;;;;;4095877;35;20079;-88
2020/12/16 07:41:01;;;;;;;0.10;0.00;;;6.80;90.50;;;;;;4100032;35;20528;-89
2020/12/16 07:43:28;;;;;;;0.00;0.00;;;6.80;90.50;;;;;;4088311;35;20062;-89
2020/12/16 07:46:05;;;;;;;0.73;0.30;;;6.80;90.50;;;;;;4096675;28;20081;-88
2020/12/16 07:48:32;;;;;;;0.00;0.00;;;6.80;90.50;;;;;;4102828;27;20514;-89
2020/12/16 07:51:05;;;;;;;0.00;0.00;;;6.80;90.50;;;;;;4105620;27;20635;-89
2020/12/16 07:53:32;;;;;;;0.00;0.00;;;6.80;90.50;;;;;;4096542;27;20397;-87
2020/12/16 07:56:00;;;;;;;0.00;0.00;;;6.80;90.50;;;;;;4098507;35;20055;-88
2020/12/16 07:58:30;;;;;;;0.00;0.00;;;6.80;90.50;;;;;;4112466;27;20067;-89
2020/12/16 08:01:33;;;;;;;0.70;0.20;;;6.80;90.50;;;;;;4101082;27;20082;-88
2020/12/16 08:04:00;;;;;;;0.10;0.07;;;6.80;90.40;;;;;;4102309;34;20070;-87
2020/12/16 08:06:32;;;;;;;1.20;0.50;;;6.80;90.40;;;;;;4089493;35;20070;-89
2020/12/16 08:11:29;;;;;;;0.08;0.08;;;6.90;90.40;;;;;;4127205;34;20075;-88
2020/12/16 08:14:09;;;;;;;0.00;0.00;;;6.90;90.30;;;;;;4125242;27;20466;-89
2020/12/16 08:16:35;;;;;;;0.00;0.00;;;6.90;90.30;;;;;;4117144;27;20079;-88
2020/12/16 08:19:03;;;;;;;0.00;0.00;;;6.90;90.30;;;;;;4123146;34;20079;-88
2020/12/16 08:21:29;;;;;;;0.00;0.00;;;7.00;90.30;;;;;;4121947;27;20075;-87
2020/12/16 08:23:56;;;;;;;0.00;0.00;;;7.00;90.20;;;;;;4110412;34;20094;-87
2020/12/16 08:26:24;;;;;;;0.23;0.07;;;7.00;90.20;;;;;;4108644;35;20098;-87
2020/12/16 08:28:50;;;;;;;0.07;0.00;;;7.00;90.20;;;;;;4107980;27;20079;-85
2020/12/16 08:31:27;;;;;;;0.00;0.00;;;7.10;90.30;;;;;;4140759;27;20059;-86
2020/12/16 08:33:57;;;;;;;0.00;0.00;;;7.10;90.20;;;;;;4114663;27;20078;-87
2020/12/16 08:36:24;;;;;;;0.00;0.00;;;7.10;90.20;;;;;;4109543;27;20079;-87
2020/12/16 08:38:56;;;;;;;0.00;0.00;;;7.10;90.20;;;;;;4125312;27;20506;-88
2020/12/16 08:41:34;;;;;;;0.00;0.00;;;7.20;90.10;;;;;;4149216;27;20142;-86
2020/12/16 08:44:03;;;;;;;0.00;0.00;;;7.20;90.00;;;;;;4101666;34;20321;-88
2020/12/16 08:46:30;;;;;;;0.00;0.00;;;7.30;90.00;;;;;;4112656;27;20094;-88
2020/12/16 08:48:56;;;;;;;0.00;0.00;;;7.30;90.00;;;;;;4124953;27;20249;-87
2020/12/16 08:51:32;;;;;;;0.00;0.00;;;7.30;90.00;;;;;;4130307;27;20063;-89
2020/12/16 08:54:18;;;;;;;0.00;0.00;;;7.30;90.00;;;;;;4110959;35;20090;-88
2020/12/16 08:56:55;;;;;;;0.30;0.10;;;7.30;90.00;;;;;;4093701;34;20067;-88
2020/12/16 08:59:22;;;;;;;0.17;0.10;;;7.40;90.00;;;;;;4117913;27;20447;-87
2020/12/16 09:02:19;;;;;;;0.10;0.10;;;7.40;90.20;;;;;;4119650;27;20067;-88
2020/12/16 09:05:00;;;;;;;0.00;0.00;;;7.50;89.80;;;;;;4120971;27;20055;-89
2020/12/16 09:07:35;;;;;;;0.00;0.00;;;7.50;89.60;;;;;;4116964;27;20086;-88
2020/12/16 09:10:02;;;;;;;0.00;0.00;;;7.60;90.00;;;;;;4147459;27;20346;-88
2020/12/16 09:12:31;;;;;;;0.00;0.00;;;7.60;89.50;;;;;;4109357;35;20478;-88
2020/12/16 09:15:04;;;;;;;0.00;0.00;;;7.70;89.50;;;;;;4106159;27;20079;-89
2020/12/16 09:17:37;;;;;;;0.00;0.00;;;7.70;89.40;;;;;;4089771;28;20064;-89
2020/12/16 09:20:11;;;;;;;0.00;0.00;;;7.80;89.40;;;;;;4093456;34;20082;-88
2020/12/16 09:22:40;;;;;;;0.00;0.00;;;7.90;89.30;;;;;;4126694;27;20082;-89
2020/12/16 09:25:22;;;;;;;0.00;0.00;;;7.90;89.10;;;;;;4161407;27;20375;-87
2020/12/16 09:28:05;;;;;;;0.00;0.00;;;8.00;89.00;;;;;;4098065;34;20083;-87
2020/12/16 09:30:40;;;;;;;6.20;0.63;;;8.00;88.80;;;;;;4099455;35;20055;-87
2020/12/16 09:33:15;;;;;;;0.00;0.00;;;8.20;88.70;;;;;;4106710;34;20047;-88
2020/12/16 09:39:48;;;;;;;0.10;0.10;;;8.40;88.40;;;;;;4115324;34;20111;-89
2020/12/16 09:42:16;;;;;;;0.03;0.03;;;8.40;88.00;;;;;;4112277;27;20587;-89
2020/12/16 09:44:48;;;;;;;0.20;0.17;;;8.50;87.90;;;;;;4124977;35;20094;-90
2020/12/16 09:47:22;;;;;;;0.22;0.10;;;8.60;87.90;;;;;;4105067;28;20036;-89
2020/12/16 09:50:02;;;;;;;0.00;0.00;;;8.60;87.80;;;;;;4117235;27;20040;-88
2020/12/16 09:52:32;;;;;;;1.40;0.20;;;8.70;87.80;;;;;;4111907;34;20374;-88
2020/12/16 09:55:11;;;;;;;0.10;0.10;;;8.70;87.80;;;;;;4135689;27;20087;-88
2020/12/16 09:57:37;;;;;;;0.00;0.00;;;8.70;87.70;;;;;;4136852;27;20079;-87
2020/12/16 10:00:04;;;;;;;0.00;0.00;;;8.80;87.70;;;;;;4118766;27;20093;-88
2020/12/16 10:02:34;;;;;;;0.00;0.00;;;8.90;87.70;;;;;;4109835;35;20545;-88
2020/12/16 10:05:01;;;;;;;0.10;0.00;;;9.00;87.50;;;;;;4112907;27;20090;-87
2020/12/16 10:07:33;;;;;;;0.00;0.00;;;9.00;87.30;;;;;;4121209;34;20086;-88
2020/12/16 10:10:00;;;;;;;0.10;0.00;;;9.10;87.20;;;;;;4127441;27;20039;-88
2020/12/16 10:12:42;;;;;;;0.13;0.10;;;9.20;87.00;;;;;;4121207;34;20129;-88
2020/12/16 10:15:11;;;;;;;0.13;0.10;;;9.30;87.60;;;;;;4166915;27;20039;-89
2020/12/16 10:17:52;;;;;;;0.00;0.00;;;9.20;86.80;;;;;;4119712;27;20067;-89
2020/12/16 10:20:18;;;;;;;0.00;0.00;;;9.30;86.80;;;;;;4130005;27;20035;-89
2020/12/16 10:22:44;;;;;;;0.17;0.05;;;9.30;86.90;;;;;;4117815;27;20194;-89
2020/12/16 10:25:21;;;;;;;0.10;0.00;;;9.30;86.90;;;;;;4172658;27;20086;-88
2020/12/16 10:27:49;;;;;;;2.97;0.15;;;9.30;87.00;;;;;;4121201;34;20094;-87
2020/12/16 10:30:32;;;;;;;0.00;0.00;;;9.30;86.80;;;;;;4142124;27;20062;-88
2020/12/16 10:33:08;;;;;;;0.00;0.00;;;9.40;86.90;;;;;;4124752;34;20479;-89
2020/12/16 10:35:54;;;;;;;0.15;0.10;;;9.30;86.90;;;;;;4115443;27;20074;-88
2020/12/16 10:38:30;;;;;;;0.00;0.00;;;9.20;87.10;;;;;;4128065;27;20524;-88
2020/12/16 10:40:57;;;;;;;0.85;0.20;;;9.30;87.30;;;;;;4102735;27;20254;-90
2020/12/16 10:43:24;;;;;;;0.00;0.00;;;9.30;87.30;;;;;;4121474;34;20406;-88
2020/12/16 10:45:52;;;;;;;0.47;0.25;;;9.30;87.30;;;;;;4123700;27;20074;-87
2020/12/16 10:48:22;;;;;;;0.15;0.03;;;9.30;87.30;;;;;;4127924;27;20086;-88
2020/12/16 10:50:50;;;;;;;0.28;0.08;;;9.40;87.30;;;;;;4123381;34;20081;-88
2020/12/16 10:53:19;;;;;;;0.00;0.00;;;9.40;87.20;;;;;;4102762;34;20089;-87
2020/12/16 10:55:46;;;;;;;0.10;0.00;;;9.40;87.20;;;;;;4121154;34;20042;-89
2020/12/16 10:58:13;;;;;;;0.00;0.00;;;9.40;87.10;;;;;;4124912;34;20086;-88
2020/12/16 11:00:46;;;;;;;0.00;0.00;;;9.40;87.10;;;;;;4126230;27;20165;-88
2020/12/16 11:03:14;;;;;;;0.20;0.00;;;9.50;87.00;;;;;;4140745;27;20477;-88
2020/12/16 11:05:41;;;;;;;0.00;0.00;;;9.50;86.90;;;;;;4123050;34;20071;-90
2020/12/16 11:08:11;;;;;;;0.22;0.22;;;9.50;86.90;;;;;;4162914;27;20040;-87
2020/12/16 11:10:55;;;;;;;0.00;0.00;;;9.60;86.80;;;;;;4130301;27;20079;-88
2020/12/16 11:13:29;;;;;;;0.10;0.00;;;9.60;86.80;;;;;;4108242;34;20106;-88
2020/12/16 11:15:56;;;;;;;0.03;0.00;;;9.60;86.70;;;;;;4071845;28;20078;-88
2020/12/16 11:18:23;;;;;;;0.00;0.00;;;9.70;86.80;;;;;;4081628;27;20090;-89
2020/12/16 11:21:01;;;;;;;5.05;0.32;;;9.70;86.60;;;;;;4128872;27;20044;-88
2020/12/16 11:23:51;;;;;;;0.00;0.00;;;9.80;86.50;;;;;;4123580;34;20082;-88
2020/12/16 11:26:27;;;;;;;0.32;0.10;;;9.90;86.50;;;;;;4126486;34;20294;-89
2020/12/16 11:29:05;;;;;;;0.35;0.20;;;9.80;86.30;;;;;;4129531;34;20071;-88
2020/12/16 11:31:47;;;;;;;0.00;0.00;;;9.90;86.40;;;;;;4131723;27;20488;-89
2020/12/16 11:34:40;;;;;;;0.30;0.00;;;9.80;86.40;;;;;;4135255;27;20383;-89
2020/12/16 11:37:07;;;;;;;0.00;0.00;;;9.90;86.30;;;;;;4125525;34;20121;-87
2020/12/16 11:39:56;;;;;;;0.43;0.25;;;10.00;86.20;;;;;;4124173;27;20070;-87
2020/12/16 11:42:48;;;;;;;0.45;0.08;;;10.10;86.10;;;;;;4130490;27;20461;-86
2020/12/16 11:45:18;;;;;;;0.00;0.00;;;10.20;86.00;;;;;;4132274;27;20101;-89
2020/12/16 11:47:49;;;;;;;;;;;10.20;85.70;;;;;;4132845;34;20078;-87
2020/12/16 11:50:29;;;;;;;0.13;0.10;;;10.30;85.60;;;;;;4149836;27;20374;-89
2020/12/16 11:53:14;;;;;;;0.00;0.00;;;10.40;85.20;;;;;;4120234;34;20261;-89
2020/12/16 11:55:54;;;;;;;0.00;0.00;;;10.40;85.10;;;;;;4130053;34;20586;-90
2020/12/16 11:58:31;;;;;;;0.52;0.03;;;10.40;85.20;;;;;;4130066;34;20142;-89
2020/12/16 12:01:32;;;;;;;0.00;0.00;;;10.50;85.50;;;;;;4131441;27;20046;-87
2020/12/16 12:04:04;;;;;;;0.00;0.00;;;10.50;85.40;;;;;;4123047;34;20311;-89
2020/12/16 12:06:47;;;;;;;0.20;0.10;;;10.60;85.40;;;;;;4127296;34;20552;-88
2020/12/16 12:09:28;;;;;;;0.15;0.00;;;10.60;85.30;;;;;;4120500;27;20078;-88
2020/12/16 12:11:55;;;;;;;0.00;0.00;;;10.60;85.30;;;;;;4129780;34;20051;-89
2020/12/16 12:14:38;;;;;;;0.00;0.00;;;10.70;85.30;;;;;;4127946;34;20521;-88
2020/12/16 12:17:30;;;;;;;0.93;0.25;;;10.70;85.20;;;;;;4112321;27;20085;-88
2020/12/16 12:23:05;;;;;;;2.85;0.10;;;10.80;85.00;;;;;;4090919;27;20924;-85
2020/12/16 12:25:32;;;;;;;0.30;0.00;;;10.90;85.00;;;;;;4118763;27;20093;-89
2020/12/16 12:28:04;;;;;;;0.70;0.30;;;11.00;84.90;;;;;;4115266;34;20078;-88
2020/12/16 12:30:40;;;;;;;0.00;0.00;;;11.00;84.70;;;;;;4145094;27;20077;-89
2020/12/16 12:33:37;;;;;;;0.47;0.17;;;11.10;84.70;;;;;;4137015;34;20043;-88
2020/12/16 12:36:38;;;;;;;4.43;0.15;;;11.10;84.50;;;;;;4148862;27;20039;-88
2020/12/16 12:39:05;;;;;;;0.13;0.00;;;11.20;84.50;;;;;;4121392;34;20078;-87
2020/12/16 12:41:50;;;;;;;0.73;0.05;;;11.20;84.50;;;;;;4118658;34;20094;-89
2020/12/16 12:44:48;;;;;;;0.00;0.00;;;11.20;84.50;;;;;;4123999;27;20067;-88
2020/12/16 12:47:41;;;;;;;0.20;0.00;;;11.30;84.50;;;;;;4122477;27;20089;-88
2020/12/16 12:50:15;;;;;;;0.08;0.00;;;11.30;84.50;;;;;;4098303;34;20109;-88
2020/12/16 12:52:49;;;;;;;0.00;0.00;;;11.30;84.50;;;;;;4123808;27;20093;-88
2020/12/16 12:55:22;;;;;;;0.10;0.00;;;11.40;84.60;;;;;;4130438;34;20113;-87
2020/12/16 12:58:07;;;;;;;0.00;0.00;;;11.40;84.50;;;;;;4130216;34;20407;-89
2020/12/16 13:00:52;;;;;;;0.47;0.10;;;11.40;84.50;;;;;;4129893;27;20094;-89
2020/12/16 13:03:46;;;;;;;0.00;0.00;;;11.40;84.50;;;;;;4133975;27;20508;-89
2020/12/16 13:06:38;;;;;;;0.70;0.00;;;11.40;84.60;;;;;;4130348;34;20074;-89
2020/12/16 13:09:07;;;;;;;2.42;0.05;;;11.40;84.70;;;;;;4122559;27;20094;-89
2020/12/16 13:11:40;;;;;;;0.00;0.00;;;11.40;84.70;;;;;;4117297;34;20097;-91
2020/12/16 13:14:11;;;;;;;0.80;0.10;;;11.40;84.70;;;;;;4133378;27;20098;-89
2020/12/16 13:16:45;;;;;;;0.52;0.20;;;11.50;84.80;;;;;;4121427;27;20575;-89
2020/12/16 13:19:23;;;;;;;0.65;0.22;;;11.50;84.70;;;;;;4107717;27;20074;-90
2020/12/16 13:21:54;;;;;;;0.00;0.00;;;11.50;84.50;;;;;;4120136;34;20081;-89
2020/12/16 13:24:33;;;;;;;0.22;0.05;;;11.60;84.50;;;;;;4130362;34;20095;-89
2020/12/16 13:27:21;;;;;;;0.15;0.00;;;11.60;84.50;;;;;;4147547;27;20089;-89
2020/12/16 13:29:54;;;;;;;0.10;0.00;;;11.60;84.50;;;;;;4136607;27;20516;-89
2020/12/16 13:32:38;;;;;;;0.00;0.00;;;11.60;84.50;;;;;;4137601;27;20078;-89
2020/12/16 13:35:52;;;;;;;0.00;0.00;;;11.70;84.50;;;;;;4130352;34;20118;-89
2020/12/16 13:38:30;;;;;;;0.00;0.00;;;11.70;84.30;;;;;;4136240;34;20086;-88
2020/12/16 13:41:04;;;;;;;0.10;0.00;;;11.80;84.20;;;;;;4137447;27;20087;-90
2020/12/16 13:43:40;;;;;;;0.57;0.10;;;11.80;84.10;;;;;;4131765;34;20524;-89
2020/12/16 13:46:15;;;;;;;0.50;0.43;;;11.90;84.10;;;;;;4132300;27;20105;-88
2020/12/16 13:48:46;;;;;;;0.00;0.00;;;11.90;84.00;;;;;;4137244;27;20074;-88
2020/12/16 13:51:28;;;;;;;0.10;0.10;;;11.90;84.10;;;;;;4151443;27;20400;-87
2020/12/16 13:54:00;;;;;;;0.67;0.10;;;11.90;84.20;;;;;;4113340;27;20074;-88
2020/12/16 13:56:42;;;;;;;0.28;0.10;;;11.90;84.20;;;;;;4123746;34;20413;-87
2020/12/16 13:59:18;;;;;;;;;;;11.90;84.30;;;;;;4131754;34;20161;-88
2020/12/16 14:01:56;;;;;;;0.55;0.25;;;11.80;84.30;;;;;;4133434;27;19986;-88
2020/12/16 14:04:30;;;;;;;0.75;0.30;;;11.80;84.40;;;;;;4134343;34;20089;-87
2020/12/16 14:07:09;;;;;;;0.47;0.00;;;11.80;84.50;;;;;;4132709;34;20086;-88
2020/12/16 14:09:52;;;;;;;1.27;0.25;;;11.80;84.60;;;;;;4122823;34;20037;-89
2020/12/16 14:12:23;;;;;;;0.85;0.30;;;11.70;84.70;;;;;;4139863;27;20189;-88
2020/12/16 14:15:33;;;;;;;0.47;0.10;;;11.70;84.70;;;;;;4129134;34;20081;-88
2020/12/16 14:18:05;;;;;;;0.00;0.00;;;11.70;84.80;;;;;;4129539;28;20066;-88
2020/12/16 14:20:38;;;;;;;0.00;0.00;;;11.70;84.80;;;;;;4131789;34;20450;-88
2020/12/16 14:23:29;;;;;;;0.98;0.10;;;11.70;84.80;;;;;;4132661;34;20186;-89
2020/12/16 14:25:56;;;;;;;3.53;0.25;;;11.70;84.80;;;;;;4122509;27;20031;-90
2020/12/16 14:28:43;;;;;;;0.30;0.10;;;11.70;84.80;;;;;;4124770;34;20660;-89
2020/12/16 14:31:13;;;;;;;0.10;0.00;;;11.80;84.80;;;;;;4130688;27;20071;-88
2020/12/16 14:33:43;;;;;;;0.32;0.17;;;11.70;84.80;;;;;;4121822;34;20070;-88
2020/12/16 14:36:10;;;;;;;0.10;0.00;;;11.70;84.80;;;;;;4141825;27;20416;-89
2020/12/16 14:41:07;;;;;;;3.55;0.20;;;11.70;85.00;;;;;;4134003;34;20153;-85
2020/12/16 14:43:42;;;;;;;0.20;0.00;;;11.70;85.10;;;;;;4095084;27;20089;-86
2020/12/16 14:46:09;;;;;;;7.88;0.15;;;11.70;85.10;;;;;;4120816;27;20066;-89
2020/12/16 14:48:36;;;;;;;1.15;0.10;;;11.70;85.10;;;;;;4110544;34;20089;-87
2020/12/16 14:51:02;;;;;;;0.08;0.00;;;11.60;85.10;;;;;;4108106;34;20086;-88
2020/12/16 14:53:33;;;;;;;1.42;0.17;;;11.60;85.10;;;;;;4120675;34;20047;-88
2020/12/16 14:56:00;;;;;;;0.10;0.05;;;11.60;85.10;;;;;;4118588;27;20122;-87
2020/12/16 14:58:27;;;;;;;0.10;0.05;;;11.60;85.90;;;;;;4110747;27;20101;-88
2020/12/16 15:00:53;;;;;;;0.00;0.00;;;11.60;85.20;;;;;;4119861;27;20074;-88
2020/12/16 15:03:20;;;;;;;0.10;0.03;;;11.60;85.30;;;;;;4120413;34;20058;-88
2020/12/16 15:05:52;;;;;;;0.00;0.00;;;11.60;85.30;;;;;;4132913;34;20089;-87
2020/12/16 15:08:22;;;;;;;0.10;0.00;;;11.50;85.30;;;;;;4119847;34;20051;-88
2020/12/16 15:10:53;;;;;;;0.52;0.52;;;11.50;85.30;;;;;;4123561;27;20113;-88
2020/12/16 15:13:21;;;;;;;0.98;0.00;;;11.50;85.30;;;;;;4122796;34;20074;-88
2020/12/16 15:15:56;;;;;;;0.47;0.10;;;11.50;85.30;;;;;;4132016;27;20074;-88
2020/12/16 15:18:23;;;;;;;0.05;0.00;;;11.40;85.30;;;;;;4122274;27;20090;-87
2020/12/16 15:20:52;;;;;;;2.15;0.52;;;11.40;85.30;;;;;;4114850;27;20046;-89
2020/12/16 15:23:19;;;;;;;1.30;0.30;;;11.50;85.50;;;;;;4123480;27;20077;-89
2020/12/16 15:25:45;;;;;;;0.08;0.00;;;11.40;85.50;;;;;;4126811;27;20082;-88
2020/12/16 15:28:12;;;;;;;1.58;0.10;;;11.40;85.50;;;;;;4118608;34;20079;-88
2020/12/16 15:30:41;;;;;;;0.22;0.08;;;11.40;85.50;;;;;;4153767;27;20066;-88
2020/12/16 15:33:07;;;;;;;0.60;0.17;;;11.40;85.50;;;;;;4125027;27;20082;-88
2020/12/16 15:35:35;;;;;;;1.55;0.20;;;11.40;85.60;;;;;;4119115;34;20075;-89
2020/12/16 15:38:03;;;;;;;27.65;8.38;;;11.40;85.60;;;;;;4143561;27;20086;-88
2020/12/16 15:40:30;;;;;;;2.78;0.85;;;11.30;85.50;;;;;;4137206;27;20074;-87
2020/12/16 15:42:56;;;;;;;5.22;1.23;;;11.30;85.60;;;;;;4140351;27;20079;-86
2020/12/16 15:45:27;;;;;;;4.00;0.40;;;11.30;85.60;;;;;;4123766;27;20979;-87
2020/12/16 15:47:53;;;;;;;0.25;0.20;;;11.30;85.60;;;;;;4122226;34;20062;-87
2020/12/16 15:50:20;;;;;;;1.10;0.40;;;11.30;85.60;;;;;;4131851;34;20090;-88
2020/12/16 15:52:47;;;;;;;8.20;2.88;;;11.30;85.60;;;;;;4121203;27;20081;-89
2020/12/16 15:55:16;;;;;;;0.55;0.35;;;11.20;85.70;;;;;;4131417;34;20074;-90
2020/12/16 15:57:42;;;;;;;0.47;0.38;;;11.30;85.80;;;;;;4110893;27;20058;-89
2020/12/16 16:00:09;;;;;;;0.22;0.00;;;11.30;85.90;;;;;;4133495;27;20086;-87
2020/12/16 16:02:39;;;;;;;0.20;0.20;;;11.20;85.90;;;;;;4128011;27;20368;-88
2020/12/16 16:05:10;;;;;;;17.15;3.13;;;11.20;85.90;;;;;;4120266;34;20122;-85
2020/12/16 16:07:37;;;;;;;3.30;0.73;;;11.10;86.00;;;;;;4136554;27;20043;-84
2020/12/16 16:10:03;;;;;;;0.60;0.32;;;11.10;86.10;;;;;;4137580;27;20042;-88
2020/12/16 16:12:30;;;;;;;2.08;1.10;;;11.10;86.90;;;;;;4125284;27;20093;-87
2020/12/16 16:15:02;;;;;;;1.33;0.50;;;11.10;86.10;;;;;;4123584;27;20062;-88
2020/12/16 16:17:28;;;;;;;1.53;0.53;;;11.10;86.10;;;;;;4121210;27;20096;-88
2020/12/16 16:20:04;;;;;;;0.80;0.10;;;11.10;86.10;;;;;;4135101;27;20169;-87
2020/12/16 16:22:31;;;;;;;0.22;0.08;;;11.10;86.10;;;;;;4121077;34;20126;-88
2020/12/16 16:24:57;;;;;;;0.40;0.20;;;11.20;86.10;;;;;;4101137;27;20059;-87
2020/12/16 16:27:23;;;;;;;1.25;0.70;;;11.20;85.90;;;;;;4120271;34;20075;-88
2020/12/16 16:29:50;;;;;;;1.40;0.50;;;11.20;85.90;;;;;;4106814;34;20089;-87
2020/12/16 16:32:22;;;;;;;0.45;0.17;;;11.20;85.70;;;;;;4106636;27;20070;-86
2020/12/16 16:34:52;;;;;;;2.67;0.40;;;11.20;85.70;;;;;;4120616;27;20077;-87
2020/12/16 16:37:20;;;;;;;1.38;0.32;;;11.20;85.50;;;;;;4125912;27;20070;-90
2020/12/16 16:39:46;;;;;;;0.10;0.08;;;11.30;85.50;;;;;;4122726;34;20406;-89
2020/12/16 16:42:16;;;;;;;0.15;0.05;;;11.30;85.30;;;;;;4099135;34;20070;-88
2020/12/16 16:44:48;;;;;;;0.00;0.00;;;11.40;85.30;;;;;;4108216;34;20086;-89
2020/12/16 16:47:14;;;;;;;1.17;0.00;;;11.40;85.30;;;;;;4141656;27;20470;-88
2020/12/16 16:49:52;;;;;;;0.10;0.00;;;11.40;85.30;;;;;;4098958;34;20454;-89
2020/12/16 16:52:21;;;;;;;0.10;0.00;;;11.40;85.30;;;;;;4138473;34;20105;-89
2020/12/16 16:54:51;;;;;;;0.00;0.00;;;11.30;85.30;;;;;;4123476;27;20031;-87
2020/12/16 16:57:20;;;;;;;0.22;0.05;;;11.30;85.40;;;;;;4115212;27;20074;-88
2020/12/16 16:59:50;;;;;;;0.00;0.00;;;11.30;85.40;;;;;;4101751;27;20245;-88
2020/12/16 17:02:17;;;;;;;0.00;0.00;;;11.30;85.50;;;;;;4080885;28;20471;-89
2020/12/16 17:04:47;;;;;;;0.00;0.00;;;11.30;85.50;;;;;;4064200;35;20303;-88
2020/12/16 17:07:13;;;;;;;0.00;0.00;;;11.20;85.50;;;;;;4053055;35;20408;-88
2020/12/16 17:09:41;;;;;;;0.00;0.00;;;11.30;85.60;;;;;;4064726;35;20360;-89
2020/12/16 17:12:08;;;;;;;0.00;0.00;;;11.20;85.60;;;;;;4062403;35;20033;-88
2020/12/16 17:14:35;;;;;;;0.32;0.10;;;11.20;85.70;;;;;;4070728;27;20363;-88
2020/12/16 17:17:19;;;;;;;0.10;0.10;;;11.20;85.70;;;;;;4056673;27;20103;-88
2020/12/16 17:19:58;;;;;;;0.10;0.00;;;11.20;85.70;;;;;;4066253;35;20068;-90
2020/12/16 17:22:24;;;;;;;0.68;0.20;;;11.20;85.70;;;;;;4063868;35;20099;-87
2020/12/16 17:24:56;;;;;;;10.73;0.20;;;11.20;85.70;;;;;;4070088;27;20080;-89
2020/12/16 17:27:23;;;;;;;0.25;0.10;;;11.20;85.70;;;;;;4063079;35;20079;-88
2020/12/16 17:29:49;;;;;;;1.27;0.70;;;11.20;85.70;;;;;;4063979;35;20033;-88
2020/12/16 17:32:16;;;;;;;0.47;0.30;;;11.20;85.70;;;;;;4075954;27;20080;-89
2020/12/16 17:34:45;;;;;;;1.63;0.88;;;11.20;85.70;;;;;;4077886;35;20115;-88
2020/12/16 17:37:14;;;;;;;0.40;0.17;;;11.20;85.70;;;;;;4082030;27;20143;-88
2020/12/16 17:39:41;;;;;;;0.15;0.10;;;11.20;85.80;;;;;;4094320;27;20036;-88
2020/12/16 17:42:07;;;;;;;0.13;0.10;;;11.20;85.80;;;;;;4055651;27;20047;-88
2020/12/16 17:44:33;;;;;;;0.00;0.00;;;11.20;85.70;;;;;;4084601;27;20094;-87